HVN1343 VVTS-VVCR
Flight info
| Callsign | HVN1343 |
|---|---|
| Flight time | 0h 39m |
| Altitude | 33000 |
| Route | BIXEX5P BIXEX W15 BANKE BANKE1A |
| Aircraft | A321/M-SDE3FGHIRWY/LB1 |
Departure
| Time | 2026-04-18 06:19 |
|---|---|
| Airport | Tan Son Nhat International Airport (VVTS) |
Arrival
| Time | 2026-04-18 06:58 |
|---|---|
| Airport | Cam Ranh International Airport / Cam Ranh Air Base (VVCR) |
| Time | Latitude | Longitude | Altitude | Speed | Heading |
|---|---|---|---|---|---|
| 2026-04-18 05:34 | 10.81258 | 106.65310 | 38 ft | 0 kts | 160° |
| 2026-04-18 06:00 | 10.81262 | 106.65309 | 37 ft | 2 kts | 160° |
| 2026-04-18 06:00 | 10.81280 | 106.65302 | 36 ft | 3 kts | 160° |
| 2026-04-18 06:01 | 10.81297 | 106.65295 | 35 ft | 3 kts | 145° |
| 2026-04-18 06:01 | 10.81309 | 106.65283 | 35 ft | 3 kts | 101° |
| 2026-04-18 06:01 | 10.81309 | 106.65264 | 35 ft | 3 kts | 71° |
| 2026-04-18 06:01 | 10.81303 | 106.65249 | 35 ft | 1 kts | 69° |
| 2026-04-18 06:02 | 10.81302 | 106.65247 | 35 ft | 0 kts | 69° |
| 2026-04-18 06:04 | 10.81303 | 106.65249 | 35 ft | 1 kts | 69° |
| 2026-04-18 06:04 | 10.81305 | 106.65254 | 35 ft | 1 kts | 69° |
| 2026-04-18 06:04 | 10.81312 | 106.65274 | 34 ft | 7 kts | 69° |
| 2026-04-18 06:05 | 10.81340 | 106.65347 | 37 ft | 13 kts | 69° |
| 2026-04-18 06:05 | 10.81373 | 106.65434 | 37 ft | 14 kts | 69° |
| 2026-04-18 06:05 | 10.81410 | 106.65533 | 37 ft | 16 kts | 69° |
| 2026-04-18 06:05 | 10.81451 | 106.65640 | 37 ft | 17 kts | 69° |
| 2026-04-18 06:06 | 10.81487 | 106.65736 | 37 ft | 11 kts | 69° |
| 2026-04-18 06:06 | 10.81533 | 106.65790 | 37 ft | 11 kts | 18° |
| 2026-04-18 06:06 | 10.81614 | 106.65799 | 37 ft | 13 kts | 5° |
| 2026-04-18 06:06 | 10.81704 | 106.65795 | 34 ft | 14 kts | 346° |
| 2026-04-18 06:07 | 10.81766 | 106.65823 | 33 ft | 10 kts | 57° |
| 2026-04-18 06:07 | 10.81796 | 106.65898 | 35 ft | 14 kts | 69° |
| 2026-04-18 06:07 | 10.81839 | 106.66012 | 35 ft | 19 kts | 69° |
| 2026-04-18 06:07 | 10.81887 | 106.66141 | 36 ft | 20 kts | 69° |
| 2026-04-18 06:08 | 10.81938 | 106.66277 | 37 ft | 21 kts | 69° |
| 2026-04-18 06:08 | 10.81992 | 106.66418 | 36 ft | 22 kts | 69° |
| 2026-04-18 06:08 | 10.82051 | 106.66573 | 34 ft | 24 kts | 69° |
| 2026-04-18 06:08 | 10.82112 | 106.66737 | 33 ft | 25 kts | 68° |
| 2026-04-18 06:09 | 10.82170 | 106.66892 | 32 ft | 22 kts | 69° |
| 2026-04-18 06:09 | 10.82215 | 106.66996 | 35 ft | 9 kts | 48° |
| 2026-04-18 06:09 | 10.82264 | 106.67006 | 35 ft | 8 kts | 342° |
| 2026-04-18 06:09 | 10.82282 | 106.66999 | 35 ft | 0 kts | 337° |
| 2026-04-18 06:15 | 10.82283 | 106.66999 | 35 ft | 1 kts | 337° |
| 2026-04-18 06:16 | 10.82312 | 106.66981 | 27 ft | 10 kts | 320° |
| 2026-04-18 06:16 | 10.82354 | 106.66925 | 35 ft | 9 kts | 285° |
| 2026-04-18 06:16 | 10.82347 | 106.66891 | 35 ft | 0 kts | 248° |
| 2026-04-18 06:18 | 10.82346 | 106.66887 | 35 ft | 3 kts | 248° |
| 2026-04-18 06:19 | 10.82276 | 106.66704 | 31 ft | 66 kts | 249° |
| 2026-04-18 06:19 | 10.82023 | 106.66034 | 39 ft | 134 kts | 249° |
| 2026-04-18 06:19 | 10.81619 | 106.64971 | 118 ft | 179 kts | 246° |
| 2026-04-18 06:19 | 10.81196 | 106.63804 | 847 ft | 175 kts | 247° |
| 2026-04-18 06:20 | 10.80776 | 106.62633 | 1611 ft | 177 kts | 247° |
| 2026-04-18 06:20 | 10.80335 | 106.61402 | 2006 ft | 195 kts | 249° |
| 2026-04-18 06:20 | 10.80017 | 106.60511 | 2142 ft | 209 kts | 248° |
| 2026-04-18 06:20 | 10.79311 | 106.58536 | 2348 ft | 241 kts | 249° |
| 2026-04-18 06:21 | 10.78911 | 106.57417 | 2507 ft | 257 kts | 249° |
| 2026-04-18 06:21 | 10.78279 | 106.55649 | 2968 ft | 272 kts | 250° |
| 2026-04-18 06:21 | 10.77408 | 106.53219 | 3970 ft | 279 kts | 249° |
| 2026-04-18 06:21 | 10.76742 | 106.51358 | 4806 ft | 281 kts | 250° |
| 2026-04-18 06:22 | 10.76006 | 106.49494 | 5550 ft | 286 kts | 239° |
| 2026-04-18 06:22 | 10.74677 | 106.47994 | 6219 ft | 289 kts | 212° |
| 2026-04-18 06:22 | 10.73483 | 106.47393 | 6639 ft | 289 kts | 194° |
| 2026-04-18 06:22 | 10.71499 | 106.47229 | 7275 ft | 288 kts | 168° |
| 2026-04-18 06:23 | 10.69649 | 106.47965 | 7909 ft | 287 kts | 142° |
| 2026-04-18 06:23 | 10.68272 | 106.49422 | 8547 ft | 288 kts | 124° |
| 2026-04-18 06:23 | 10.67094 | 106.51079 | 9204 ft | 291 kts | 123° |
| 2026-04-18 06:23 | 10.65929 | 106.52773 | 9789 ft | 293 kts | 120° |
| 2026-04-18 06:24 | 10.65150 | 106.54680 | 10305 ft | 294 kts | 98° |
| 2026-04-18 06:24 | 10.65201 | 106.56755 | 10829 ft | 298 kts | 74° |
| 2026-04-18 06:24 | 10.66055 | 106.58686 | 11368 ft | 303 kts | 62° |
| 2026-04-18 06:24 | 10.66934 | 106.60617 | 11917 ft | 306 kts | 68° |
| 2026-04-18 06:25 | 10.67715 | 106.62645 | 12489 ft | 309 kts | 69° |
| 2026-04-18 06:25 | 10.68371 | 106.64390 | 12987 ft | 311 kts | 69° |
| 2026-04-18 06:25 | 10.69147 | 106.66456 | 13588 ft | 313 kts | 70° |
| 2026-04-18 06:25 | 10.69944 | 106.68578 | 13770 ft | 330 kts | 70° |
| 2026-04-18 06:26 | 10.70785 | 106.70816 | 13893 ft | 346 kts | 70° |
| 2026-04-18 06:26 | 10.71689 | 106.73145 | 14010 ft | 362 kts | 66° |
| 2026-04-18 06:26 | 10.72807 | 106.75492 | 14126 ft | 377 kts | 64° |
| 2026-04-18 06:26 | 10.73426 | 106.76740 | 14185 ft | 384 kts | 63° |
| 2026-04-18 06:27 | 10.74650 | 106.79195 | 14411 ft | 393 kts | 64° |
| 2026-04-18 06:27 | 10.75896 | 106.81692 | 14810 ft | 397 kts | 63° |
| 2026-04-18 06:27 | 10.77152 | 106.84205 | 15209 ft | 400 kts | 63° |
| 2026-04-18 06:27 | 10.78412 | 106.86742 | 15627 ft | 403 kts | 64° |
| 2026-04-18 06:28 | 10.79587 | 106.89299 | 16022 ft | 406 kts | 66° |
| 2026-04-18 06:28 | 10.80742 | 106.91930 | 16424 ft | 408 kts | 66° |
| 2026-04-18 06:28 | 10.81978 | 106.94543 | 16805 ft | 411 kts | 63° |
| 2026-04-18 06:28 | 10.83316 | 106.97125 | 17201 ft | 414 kts | 62° |
| 2026-04-18 06:29 | 10.84656 | 106.99728 | 17581 ft | 417 kts | 64° |
| 2026-04-18 06:29 | 10.85904 | 107.02403 | 17949 ft | 420 kts | 65° |
| 2026-04-18 06:29 | 10.87142 | 107.05106 | 18298 ft | 422 kts | 65° |
| 2026-04-18 06:29 | 10.88387 | 107.07824 | 18633 ft | 425 kts | 65° |
| 2026-04-18 06:30 | 10.89641 | 107.10561 | 18939 ft | 428 kts | 65° |
| 2026-04-18 06:30 | 10.90901 | 107.13314 | 19244 ft | 431 kts | 65° |
| 2026-04-18 06:30 | 10.92170 | 107.16084 | 19563 ft | 433 kts | 64° |
| 2026-04-18 06:30 | 10.93530 | 107.18827 | 19872 ft | 435 kts | 57° |
| 2026-04-18 06:31 | 10.95261 | 107.21358 | 20195 ft | 437 kts | 54° |
| 2026-04-18 06:31 | 10.97010 | 107.23895 | 20517 ft | 439 kts | 54° |
| 2026-04-18 06:31 | 10.98766 | 107.26449 | 20838 ft | 441 kts | 54° |
| 2026-04-18 06:31 | 11.00533 | 107.29017 | 21147 ft | 444 kts | 54° |
| 2026-04-18 06:32 | 11.02310 | 107.31600 | 21449 ft | 446 kts | 54° |
| 2026-04-18 06:32 | 11.04096 | 107.34196 | 21756 ft | 449 kts | 54° |
| 2026-04-18 06:32 | 11.05890 | 107.36802 | 22046 ft | 451 kts | 54° |
| 2026-04-18 06:32 | 11.07692 | 107.39421 | 22333 ft | 453 kts | 54° |
| 2026-04-18 06:33 | 11.09508 | 107.42057 | 22627 ft | 455 kts | 53° |
| 2026-04-18 06:33 | 11.11394 | 107.44645 | 22905 ft | 456 kts | 52° |
| 2026-04-18 06:33 | 11.13317 | 107.47234 | 23184 ft | 458 kts | 52° |
| 2026-04-18 06:33 | 11.15216 | 107.49795 | 23451 ft | 460 kts | 51° |
| 2026-04-18 06:34 | 11.17183 | 107.52385 | 23680 ft | 462 kts | 51° |
| 2026-04-18 06:34 | 11.19166 | 107.54969 | 23916 ft | 464 kts | 51° |
| 2026-04-18 06:34 | 11.21138 | 107.57585 | 24156 ft | 466 kts | 52° |
| 2026-04-18 06:34 | 11.23038 | 107.60274 | 24394 ft | 468 kts | 53° |
| 2026-04-18 06:35 | 11.24915 | 107.62989 | 24643 ft | 470 kts | 53° |
| 2026-04-18 06:35 | 11.26835 | 107.65690 | 24882 ft | 471 kts | 53° |
| 2026-04-18 06:35 | 11.28767 | 107.68395 | 25124 ft | 473 kts | 52° |
| 2026-04-18 06:35 | 11.30708 | 107.71110 | 25362 ft | 475 kts | 52° |
| 2026-04-18 06:36 | 11.32654 | 107.73832 | 25611 ft | 476 kts | 52° |
| 2026-04-18 06:36 | 11.34599 | 107.76578 | 25846 ft | 478 kts | 53° |
| 2026-04-18 06:36 | 11.36482 | 107.79385 | 26040 ft | 481 kts | 54° |
| 2026-04-18 06:36 | 11.38405 | 107.82179 | 26265 ft | 482 kts | 53° |
| 2026-04-18 06:37 | 11.40335 | 107.84979 | 26447 ft | 484 kts | 53° |
| 2026-04-18 06:37 | 11.42268 | 107.87787 | 26644 ft | 485 kts | 53° |
| 2026-04-18 06:37 | 11.44207 | 107.90600 | 26821 ft | 486 kts | 53° |
| 2026-04-18 06:37 | 11.46129 | 107.93389 | 26999 ft | 487 kts | 53° |
| 2026-04-18 06:38 | 11.48081 | 107.96219 | 27170 ft | 488 kts | 53° |
| 2026-04-18 06:38 | 11.50038 | 107.99057 | 27342 ft | 489 kts | 53° |
| 2026-04-18 06:38 | 11.52030 | 108.01875 | 27538 ft | 489 kts | 52° |
| 2026-04-18 06:38 | 11.54063 | 108.04664 | 27781 ft | 489 kts | 51° |
| 2026-04-18 06:39 | 11.56099 | 108.07450 | 27888 ft | 490 kts | 52° |
| 2026-04-18 06:39 | 11.58111 | 108.10255 | 27914 ft | 490 kts | 52° |
| 2026-04-18 06:39 | 11.60096 | 108.13081 | 27912 ft | 490 kts | 53° |
| 2026-04-18 06:39 | 11.62056 | 108.15919 | 27913 ft | 490 kts | 53° |
| 2026-04-18 06:40 | 11.63996 | 108.18730 | 27915 ft | 490 kts | 53° |
| 2026-04-18 06:40 | 11.65958 | 108.21574 | 27914 ft | 490 kts | 53° |
| 2026-04-18 06:40 | 11.67918 | 108.24414 | 27914 ft | 490 kts | 53° |
| 2026-04-18 06:40 | 11.69882 | 108.27260 | 27915 ft | 490 kts | 53° |
| 2026-04-18 06:41 | 11.71806 | 108.30131 | 27880 ft | 489 kts | 56° |
| 2026-04-18 06:41 | 11.73595 | 108.33067 | 27127 ft | 486 kts | 57° |
| 2026-04-18 06:41 | 11.75383 | 108.36004 | 26056 ft | 488 kts | 56° |
| 2026-04-18 06:41 | 11.77198 | 108.38942 | 24992 ft | 490 kts | 57° |
| 2026-04-18 06:42 | 11.79018 | 108.41891 | 23949 ft | 492 kts | 56° |
| 2026-04-18 06:42 | 11.80890 | 108.44796 | 23159 ft | 486 kts | 55° |
| 2026-04-18 06:42 | 11.82804 | 108.47606 | 22312 ft | 479 kts | 54° |
| 2026-04-18 06:42 | 11.84340 | 108.50596 | 21533 ft | 474 kts | 70° |
| 2026-04-18 06:43 | 11.85355 | 108.53773 | 20754 ft | 468 kts | 72° |
| 2026-04-18 06:43 | 11.86244 | 108.56956 | 19967 ft | 463 kts | 74° |
| 2026-04-18 06:43 | 11.87073 | 108.60107 | 19221 ft | 457 kts | 76° |
| 2026-04-18 06:43 | 11.87705 | 108.63266 | 18470 ft | 451 kts | 81° |
| 2026-04-18 06:44 | 11.88138 | 108.66414 | 17677 ft | 445 kts | 82° |
| 2026-04-18 06:44 | 11.88533 | 108.69524 | 16869 ft | 439 kts | 82° |
| 2026-04-18 06:44 | 11.88955 | 108.72591 | 16094 ft | 433 kts | 81° |
| 2026-04-18 06:44 | 11.89397 | 108.75607 | 15351 ft | 427 kts | 81° |
| 2026-04-18 06:45 | 11.89829 | 108.78584 | 14628 ft | 421 kts | 81° |
| 2026-04-18 06:45 | 11.90241 | 108.81489 | 13974 ft | 415 kts | 81° |
| 2026-04-18 06:45 | 11.90646 | 108.84385 | 13258 ft | 409 kts | 81° |
| 2026-04-18 06:45 | 11.91042 | 108.87236 | 12582 ft | 397 kts | 82° |
| 2026-04-18 06:46 | 11.91409 | 108.89908 | 12150 ft | 363 kts | 81° |
| 2026-04-18 06:46 | 11.91739 | 108.92347 | 11789 ft | 331 kts | 80° |
| 2026-04-18 06:46 | 11.92040 | 108.94577 | 11448 ft | 305 kts | 81° |
| 2026-04-18 06:46 | 11.92337 | 108.96695 | 10887 ft | 300 kts | 79° |
| 2026-04-18 06:47 | 11.92634 | 108.98785 | 10545 ft | 296 kts | 79° |
| 2026-04-18 06:47 | 11.92929 | 109.00857 | 10167 ft | 294 kts | 81° |
| 2026-04-18 06:47 | 11.93183 | 109.02923 | 9785 ft | 293 kts | 80° |
| 2026-04-18 06:47 | 11.93447 | 109.04981 | 9390 ft | 291 kts | 79° |
| 2026-04-18 06:48 | 11.93727 | 109.07009 | 9233 ft | 289 kts | 79° |
| 2026-04-18 06:48 | 11.94015 | 109.09047 | 9106 ft | 291 kts | 79° |
| 2026-04-18 06:48 | 11.94303 | 109.11066 | 8984 ft | 291 kts | 78° |
| 2026-04-18 06:48 | 11.94590 | 109.13107 | 8858 ft | 288 kts | 80° |
| 2026-04-18 06:49 | 11.94870 | 109.15126 | 8732 ft | 287 kts | 81° |
| 2026-04-18 06:49 | 11.95148 | 109.17143 | 8610 ft | 286 kts | 81° |
| 2026-04-18 06:49 | 11.95425 | 109.19153 | 8509 ft | 285 kts | 80° |
| 2026-04-18 06:49 | 11.95534 | 109.21176 | 8385 ft | 287 kts | 92° |
| 2026-04-18 06:50 | 11.95181 | 109.23189 | 8238 ft | 289 kts | 104° |
| 2026-04-18 06:50 | 11.94497 | 109.25126 | 8122 ft | 290 kts | 108° |
| 2026-04-18 06:50 | 11.93802 | 109.27058 | 8007 ft | 290 kts | 108° |
| 2026-04-18 06:50 | 11.93112 | 109.28989 | 7868 ft | 290 kts | 107° |
| 2026-04-18 06:51 | 11.92221 | 109.30829 | 7751 ft | 292 kts | 128° |
| 2026-04-18 06:51 | 11.90621 | 109.32087 | 7633 ft | 296 kts | 157° |
| 2026-04-18 06:51 | 11.88593 | 109.32403 | 7512 ft | 298 kts | 187° |
| 2026-04-18 06:51 | 11.86597 | 109.31842 | 7215 ft | 298 kts | 200° |
| 2026-04-18 06:52 | 11.84650 | 109.31132 | 6790 ft | 293 kts | 201° |
| 2026-04-18 06:52 | 11.82782 | 109.30431 | 6375 ft | 278 kts | 201° |
| 2026-04-18 06:52 | 11.81147 | 109.29520 | 5962 ft | 260 kts | 226° |
| 2026-04-18 06:52 | 11.80154 | 109.28107 | 5589 ft | 240 kts | 252° |
| 2026-04-18 06:53 | 11.79862 | 109.26504 | 5270 ft | 221 kts | 275° |
| 2026-04-18 06:53 | 11.80187 | 109.25034 | 4952 ft | 208 kts | 297° |
| 2026-04-18 06:53 | 11.80825 | 109.23708 | 4675 ft | 207 kts | 298° |
| 2026-04-18 06:53 | 11.81443 | 109.22413 | 4365 ft | 199 kts | 298° |
| 2026-04-18 06:54 | 11.82038 | 109.21159 | 4071 ft | 193 kts | 298° |
| 2026-04-18 06:54 | 11.82617 | 109.19946 | 3797 ft | 188 kts | 298° |
| 2026-04-18 06:54 | 11.83250 | 109.18790 | 3430 ft | 189 kts | 310° |
| 2026-04-18 06:54 | 11.84215 | 109.17914 | 3169 ft | 183 kts | 332° |
| 2026-04-18 06:55 | 11.85383 | 109.17451 | 2979 ft | 180 kts | 352° |
| 2026-04-18 06:55 | 11.86622 | 109.17420 | 2757 ft | 176 kts | 12° |
| 2026-04-18 06:55 | 11.87774 | 109.17764 | 2511 ft | 170 kts | 22° |
| 2026-04-18 06:55 | 11.88900 | 109.18152 | 2273 ft | 171 kts | 24° |
| 2026-04-18 06:56 | 11.90036 | 109.18545 | 2022 ft | 174 kts | 22° |
| 2026-04-18 06:56 | 11.91178 | 109.18940 | 1749 ft | 171 kts | 22° |
| 2026-04-18 06:56 | 11.92272 | 109.19318 | 1493 ft | 160 kts | 24° |
| 2026-04-18 06:56 | 11.93277 | 109.19722 | 1300 ft | 148 kts | 30° |
| 2026-04-18 06:57 | 11.94162 | 109.20171 | 1155 ft | 141 kts | 30° |
| 2026-04-18 06:57 | 11.95988 | 109.20890 | 649 ft | 140 kts | 23° |
| 2026-04-18 06:57 | 11.96897 | 109.21203 | 373 ft | 138 kts | 21° |
| 2026-04-18 06:58 | 11.97813 | 109.21528 | 168 ft | 140 kts | 23° |
| 2026-04-18 06:58 | 11.98720 | 109.21849 | 55 ft | 128 kts | 20° |
| 2026-04-18 06:58 | 11.99406 | 109.22087 | 52 ft | 79 kts | 18° |
| 2026-04-18 06:58 | 11.99780 | 109.22217 | 52 ft | 34 kts | 19° |
| 2026-04-18 06:59 | 11.99907 | 109.22221 | 52 ft | 17 kts | 316° |
| 2026-04-18 06:59 | 11.99951 | 109.22123 | 51 ft | 10 kts | 288° |
| 2026-04-18 06:59 | 11.99970 | 109.22066 | 54 ft | 8 kts | 289° |
| 2026-04-18 06:59 | 11.99993 | 109.21999 | 54 ft | 12 kts | 289° |
| 2026-04-18 07:00 | 12.00020 | 109.21918 | 54 ft | 10 kts | 289° |
| 2026-04-18 07:00 | 12.00044 | 109.21848 | 53 ft | 7 kts | 289° |
| 2026-04-18 07:00 | 12.00062 | 109.21795 | 53 ft | 9 kts | 289° |
| 2026-04-18 07:00 | 12.00085 | 109.21724 | 53 ft | 12 kts | 289° |
| 2026-04-18 07:01 | 12.00115 | 109.21651 | 51 ft | 10 kts | 315° |
| 2026-04-18 07:01 | 12.00185 | 109.21651 | 53 ft | 11 kts | 19° |
| 2026-04-18 07:01 | 12.00284 | 109.21685 | 53 ft | 20 kts | 18° |
| 2026-04-18 07:01 | 12.00421 | 109.21733 | 53 ft | 22 kts | 19° |
| 2026-04-18 07:02 | 12.00568 | 109.21785 | 53 ft | 23 kts | 18° |
| 2026-04-18 07:02 | 12.00723 | 109.21838 | 53 ft | 24 kts | 19° |
| 2026-04-18 07:02 | 12.00839 | 109.21862 | 53 ft | 14 kts | 335° |
| 2026-04-18 07:02 | 12.00927 | 109.21840 | 53 ft | 14 kts | 14° |
| 2026-04-18 07:03 | 12.00994 | 109.21828 | 53 ft | 10 kts | 302° |
| 2026-04-18 07:03 | 12.01011 | 109.21785 | 53 ft | 4 kts | 288° |
| 2026-04-18 07:03 | 12.01016 | 109.21770 | 53 ft | 2 kts | 289° |
| 2026-04-18 07:03 | 12.01018 | 109.21763 | 51 ft | 0 kts | 289° |